| Date | Time | Temp. (oF) | Dew Point (oF) | Rel. Hum. (%) | Press. (in.) | Wind Dir. | Wind Speed (mph) | Hourly Rainfall (in.) |
|
|---|---|---|---|---|---|---|---|---|---|
| 1 | 12/10 | 00:00 | 20 | 19 | 100 | 29.80 | SW | 1 | 0.00 |
| 2 | 12/09 | 23:00 | 22 | 22 | 100 | 29.79 | SW | 1 | 0.00 |
| 3 | 12/09 | 22:00 | 24 | 23 | 99 | 29.78 | WSW | 1 | 0.00 |
| 4 | 12/09 | 21:00 | 26 | 25 | 99 | 29.78 | WSW | 0 | 0.00 |
| 5 | 12/09 | 20:00 | 26 | 25 | 99 | 29.77 | W | 1 | 0.00 |
| 6 | 12/09 | 19:00 | 26 | 26 | 100 | 29.76 | WNW | 1 | 0.01 |
| 7 | 12/09 | 18:00 | 26 | 26 | 100 | 29.77 | W | 1 | 0.01 |
| 8 | 12/09 | 17:00 | 27 | 27 | 100 | 29.78 | W | 2 | 0.03 |
| 9 | 12/09 | 16:00 | 27 | 26 | 99 | 29.77 | NNW | 5 | 0.02 |
| 10 | 12/09 | 15:00 | 27 | 27 | 100 | 29.77 | WNW | 3 | 0.04 |
| 11 | 12/09 | 14:00 | 27 | 26 | 97 | 29.78 | NW | 3 | 0.02 |
| 12 | 12/09 | 13:00 | 27 | 26 | 96 | 29.79 | NNW | 3 | 0.01 |
| 13 | 12/09 | 12:00 | 27 | 25 | 95 | 29.85 | N | 4 | 0.00 |
| 14 | 12/09 | 11:00 | 27 | 24 | 92 | 29.90 | N | 3 | 0.00 |
| 15 | 12/09 | 10:00 | 30 | 20 | 68 | 29.92 | NNW | 5 | 0.00 |
| 16 | 12/09 | 09:00 | 31 | 17 | 57 | 29.91 | N | 4 | 0.00 |
| 17 | 12/09 | 08:00 | 30 | 17 | 60 | 29.91 | NNW | 4 | 0.00 |
| 18 | 12/09 | 07:00 | 30 | 19 | 65 | 29.92 | NNW | 3 | 0.00 |
| 19 | 12/09 | 06:00 | 30 | 20 | 66 | 29.92 | WSW | 2 | 0.00 |
| 20 | 12/09 | 05:00 | 30 | 23 | 76 | 29.92 | WSW | 1 | 0.00 |
| 21 | 12/09 | 04:00 | 30 | 23 | 77 | 29.94 | WSW | 1 | 0.00 |
| 22 | 12/09 | 03:00 | 31 | 21 | 67 | 29.96 | WSW | 1 | 0.00 |
| 23 | 12/09 | 02:00 | 31 | 23 | 74 | 29.94 | E | 1 | 0.00 |
| 24 | 12/09 | 01:00 | 30 | 22 | 73 | 29.94 | E | 1 | 0.00 |